sensor_id;sensor_type;location;lat;lon;timestamp;P1;durP1;ratioP1;P2;durP2;ratioP2
74791;SDS011;63319;46.046;17.802;2023-04-05T00:02:51;4.40;;;2.45;;
74791;SDS011;63319;46.046;17.802;2023-04-05T00:05:54;4.80;;;2.00;;
74791;SDS011;63319;46.046;17.802;2023-04-05T00:09:06;4.45;;;2.05;;
74791;SDS011;63319;46.046;17.802;2023-04-05T00:12:09;5.18;;;2.50;;
74791;SDS011;63319;46.046;17.802;2023-04-05T00:15:12;5.90;;;2.20;;
74791;SDS011;63319;46.046;17.802;2023-04-05T00:18:18;5.07;;;2.42;;
74791;SDS011;63319;46.046;17.802;2023-04-05T00:21:25;6.03;;;2.23;;
74791;SDS011;63319;46.046;17.802;2023-04-05T00:24:27;4.50;;;2.15;;
74791;SDS011;63319;46.046;17.802;2023-04-05T00:27:30;4.85;;;2.20;;
74791;SDS011;63319;46.046;17.802;2023-04-05T00:30:35;4.10;;;2.15;;
74791;SDS011;63319;46.046;17.802;2023-04-05T00:33:38;5.80;;;2.70;;
74791;SDS011;63319;46.046;17.802;2023-04-05T00:36:40;4.90;;;2.20;;
74791;SDS011;63319;46.046;17.802;2023-04-05T00:39:43;5.95;;;2.63;;
74791;SDS011;63319;46.046;17.802;2023-04-05T00:42:46;6.50;;;2.47;;
74791;SDS011;63319;46.046;17.802;2023-04-05T00:45:49;4.05;;;2.30;;
74791;SDS011;63319;46.046;17.802;2023-04-05T00:48:52;4.63;;;1.98;;
74791;SDS011;63319;46.046;17.802;2023-04-05T00:51:55;4.03;;;1.90;;
74791;SDS011;63319;46.046;17.802;2023-04-05T00:54:59;3.55;;;2.08;;
74791;SDS011;63319;46.046;17.802;2023-04-05T00:58:02;4.53;;;2.35;;
74791;SDS011;63319;46.046;17.802;2023-04-05T01:01:18;4.32;;;1.80;;
74791;SDS011;63319;46.046;17.802;2023-04-05T01:04:24;4.05;;;2.13;;
74791;SDS011;63319;46.046;17.802;2023-04-05T01:10:38;4.60;;;2.03;;
74791;SDS011;63319;46.046;17.802;2023-04-05T01:13:46;5.13;;;2.25;;
74791;SDS011;63319;46.046;17.802;2023-04-05T01:16:49;4.68;;;2.25;;
74791;SDS011;63319;46.046;17.802;2023-04-05T01:19:55;4.63;;;2.25;;
74791;SDS011;63319;46.046;17.802;2023-04-05T01:23:16;3.63;;;1.83;;
74791;SDS011;63319;46.046;17.802;2023-04-05T01:26:44;3.58;;;1.90;;
74791;SDS011;63319;46.046;17.802;2023-04-05T01:33:32;5.18;;;2.40;;
74791;SDS011;63319;46.046;17.802;2023-04-05T01:36:53;5.10;;;2.42;;
74791;SDS011;63319;46.046;17.802;2023-04-05T01:39:58;4.13;;;1.83;;
74791;SDS011;63319;46.046;17.802;2023-04-05T01:43:11;4.57;;;2.30;;
74791;SDS011;63319;46.046;17.802;2023-04-05T01:46:17;4.97;;;2.58;;
74791;SDS011;63319;46.046;17.802;2023-04-05T01:49:20;5.82;;;2.22;;
74791;SDS011;63319;46.046;17.802;2023-04-05T01:52:23;4.35;;;2.10;;
74791;SDS011;63319;46.046;17.802;2023-04-05T01:55:26;4.13;;;1.90;;
74791;SDS011;63319;46.046;17.802;2023-04-05T01:58:29;4.38;;;2.17;;
74791;SDS011;63319;46.046;17.802;2023-04-05T02:01:32;4.10;;;2.17;;
74791;SDS011;63319;46.046;17.802;2023-04-05T02:04:35;4.70;;;2.20;;
74791;SDS011;63319;46.046;17.802;2023-04-05T02:07:37;4.22;;;2.13;;
74791;SDS011;63319;46.046;17.802;2023-04-05T02:10:40;4.50;;;1.90;;
74791;SDS011;63319;46.046;17.802;2023-04-05T02:13:44;5.50;;;2.28;;
74791;SDS011;63319;46.046;17.802;2023-04-05T02:16:46;4.57;;;2.15;;
74791;SDS011;63319;46.046;17.802;2023-04-05T02:19:50;4.55;;;2.22;;
74791;SDS011;63319;46.046;17.802;2023-04-05T02:22:54;4.50;;;2.22;;
74791;SDS011;63319;46.046;17.802;2023-04-05T02:25:57;4.00;;;2.00;;
74791;SDS011;63319;46.046;17.802;2023-04-05T02:29:01;5.45;;;2.50;;
74791;SDS011;63319;46.046;17.802;2023-04-05T02:32:04;4.97;;;2.47;;
74791;SDS011;63319;46.046;17.802;2023-04-05T02:35:08;4.00;;;1.98;;
74791;SDS011;63319;46.046;17.802;2023-04-05T02:38:11;4.15;;;2.45;;
74791;SDS011;63319;46.046;17.802;2023-04-05T02:41:13;4.93;;;2.37;;
74791;SDS011;63319;46.046;17.802;2023-04-05T02:44:17;3.53;;;1.73;;
74791;SDS011;63319;46.046;17.802;2023-04-05T02:47:20;4.18;;;2.00;;
74791;SDS011;63319;46.046;17.802;2023-04-05T02:50:32;4.50;;;1.95;;
74791;SDS011;63319;46.046;17.802;2023-04-05T02:53:35;4.32;;;2.15;;
74791;SDS011;63319;46.046;17.802;2023-04-05T02:56:42;3.83;;;1.80;;
74791;SDS011;63319;46.046;17.802;2023-04-05T02:59:49;3.80;;;2.00;;
74791;SDS011;63319;46.046;17.802;2023-04-05T03:02:55;4.00;;;1.83;;
74791;SDS011;63319;46.046;17.802;2023-04-05T03:05:59;4.03;;;2.03;;
74791;SDS011;63319;46.046;17.802;2023-04-05T03:09:18;3.88;;;1.92;;
74791;SDS011;63319;46.046;17.802;2023-04-05T03:12:25;5.10;;;1.93;;
74791;SDS011;63319;46.046;17.802;2023-04-05T03:15:30;4.15;;;1.90;;
74791;SDS011;63319;46.046;17.802;2023-04-05T03:18:39;4.60;;;1.80;;
74791;SDS011;63319;46.046;17.802;2023-04-05T03:21:44;4.32;;;2.10;;
74791;SDS011;63319;46.046;17.802;2023-04-05T03:24:58;4.30;;;2.10;;
74791;SDS011;63319;46.046;17.802;2023-04-05T03:28:04;6.07;;;2.30;;
74791;SDS011;63319;46.046;17.802;2023-04-05T03:31:08;4.68;;;2.13;;
74791;SDS011;63319;46.046;17.802;2023-04-05T03:34:11;5.05;;;2.30;;
74791;SDS011;63319;46.046;17.802;2023-04-05T03:37:19;4.28;;;2.03;;
74791;SDS011;63319;46.046;17.802;2023-04-05T03:40:32;3.95;;;2.47;;
74791;SDS011;63319;46.046;17.802;2023-04-05T03:43:35;4.00;;;2.00;;
74791;SDS011;63319;46.046;17.802;2023-04-05T03:46:40;4.22;;;2.05;;
74791;SDS011;63319;46.046;17.802;2023-04-05T03:49:43;4.20;;;2.28;;
74791;SDS011;63319;46.046;17.802;2023-04-05T03:52:46;4.50;;;2.30;;
74791;SDS011;63319;46.046;17.802;2023-04-05T03:55:49;5.18;;;2.30;;
74791;SDS011;63319;46.046;17.802;2023-04-05T03:59:07;4.47;;;2.37;;
74791;SDS011;63319;46.046;17.802;2023-04-05T04:02:10;4.57;;;2.05;;
74791;SDS011;63319;46.046;17.802;2023-04-05T04:05:13;4.43;;;2.38;;
74791;SDS011;63319;46.046;17.802;2023-04-05T04:08:18;4.20;;;2.10;;
74791;SDS011;63319;46.046;17.802;2023-04-05T04:11:21;4.80;;;2.13;;
74791;SDS011;63319;46.046;17.802;2023-04-05T04:14:24;5.23;;;2.20;;
74791;SDS011;63319;46.046;17.802;2023-04-05T04:17:38;3.92;;;2.00;;
74791;SDS011;63319;46.046;17.802;2023-04-05T04:21:03;4.10;;;2.10;;
74791;SDS011;63319;46.046;17.802;2023-04-05T04:24:46;4.32;;;1.98;;
74791;SDS011;63319;46.046;17.802;2023-04-05T04:28:03;4.32;;;2.50;;
74791;SDS011;63319;46.046;17.802;2023-04-05T04:31:22;5.10;;;2.50;;
74791;SDS011;63319;46.046;17.802;2023-04-05T04:34:31;3.40;;;1.77;;
74791;SDS011;63319;46.046;17.802;2023-04-05T04:37:52;4.35;;;2.30;;
74791;SDS011;63319;46.046;17.802;2023-04-05T04:41:13;4.97;;;2.38;;
74791;SDS011;63319;46.046;17.802;2023-04-05T04:44:40;4.97;;;2.30;;
74791;SDS011;63319;46.046;17.802;2023-04-05T04:48:16;4.43;;;2.20;;
74791;SDS011;63319;46.046;17.802;2023-04-05T04:51:31;5.20;;;2.13;;
74791;SDS011;63319;46.046;17.802;2023-04-05T04:54:35;5.15;;;2.22;;
74791;SDS011;63319;46.046;17.802;2023-04-05T04:57:38;3.90;;;1.70;;
74791;SDS011;63319;46.046;17.802;2023-04-05T05:00:40;5.70;;;2.50;;
74791;SDS011;63319;46.046;17.802;2023-04-05T05:03:46;3.87;;;1.93;;
74791;SDS011;63319;46.046;17.802;2023-04-05T05:06:54;4.95;;;2.40;;
74791;SDS011;63319;46.046;17.802;2023-04-05T05:09:57;3.97;;;2.30;;
74791;SDS011;63319;46.046;17.802;2023-04-05T05:13:00;5.38;;;2.45;;
74791;SDS011;63319;46.046;17.802;2023-04-05T05:16:03;4.43;;;2.03;;
74791;SDS011;63319;46.046;17.802;2023-04-05T05:19:06;4.40;;;2.20;;
74791;SDS011;63319;46.046;17.802;2023-04-05T05:22:18;4.65;;;2.53;;
74791;SDS011;63319;46.046;17.802;2023-04-05T05:25:21;5.82;;;2.10;;
74791;SDS011;63319;46.046;17.802;2023-04-05T05:28:25;4.10;;;2.00;;
74791;SDS011;63319;46.046;17.802;2023-04-05T05:31:29;5.00;;;2.90;;
74791;SDS011;63319;46.046;17.802;2023-04-05T05:34:34;4.47;;;2.27;;
74791;SDS011;63319;46.046;17.802;2023-04-05T05:37:36;4.07;;;1.92;;
74791;SDS011;63319;46.046;17.802;2023-04-05T05:40:40;4.32;;;2.30;;
74791;SDS011;63319;46.046;17.802;2023-04-05T05:43:43;4.32;;;1.98;;
74791;SDS011;63319;46.046;17.802;2023-04-05T05:46:46;4.57;;;1.98;;
74791;SDS011;63319;46.046;17.802;2023-04-05T05:49:54;4.77;;;2.30;;
74791;SDS011;63319;46.046;17.802;2023-04-05T05:52:57;4.80;;;2.28;;
74791;SDS011;63319;46.046;17.802;2023-04-05T05:56:02;3.90;;;2.17;;
74791;SDS011;63319;46.046;17.802;2023-04-05T05:59:05;4.47;;;2.03;;
74791;SDS011;63319;46.046;17.802;2023-04-05T06:02:08;5.10;;;2.42;;
74791;SDS011;63319;46.046;17.802;2023-04-05T06:05:11;4.57;;;2.00;;
74791;SDS011;63319;46.046;17.802;2023-04-05T06:08:14;4.47;;;1.98;;
74791;SDS011;63319;46.046;17.802;2023-04-05T06:11:18;4.13;;;2.10;;
74791;SDS011;63319;46.046;17.802;2023-04-05T06:14:23;5.05;;;2.20;;
74791;SDS011;63319;46.046;17.802;2023-04-05T06:17:26;4.25;;;1.90;;
74791;SDS011;63319;46.046;17.802;2023-04-05T06:20:30;4.20;;;2.10;;
74791;SDS011;63319;46.046;17.802;2023-04-05T06:23:32;4.53;;;2.20;;
74791;SDS011;63319;46.046;17.802;2023-04-05T06:26:35;5.05;;;2.33;;
74791;SDS011;63319;46.046;17.802;2023-04-05T06:29:38;4.65;;;2.20;;
74791;SDS011;63319;46.046;17.802;2023-04-05T06:32:41;3.83;;;2.05;;
74791;SDS011;63319;46.046;17.802;2023-04-05T06:35:45;4.03;;;2.30;;
74791;SDS011;63319;46.046;17.802;2023-04-05T06:38:48;4.38;;;2.08;;
74791;SDS011;63319;46.046;17.802;2023-04-05T06:41:52;4.13;;;2.17;;
74791;SDS011;63319;46.046;17.802;2023-04-05T06:45:00;4.00;;;1.88;;
74791;SDS011;63319;46.046;17.802;2023-04-05T06:48:06;4.40;;;2.35;;
74791;SDS011;63319;46.046;17.802;2023-04-05T06:51:10;3.87;;;1.97;;
74791;SDS011;63319;46.046;17.802;2023-04-05T06:54:13;5.53;;;2.10;;
74791;SDS011;63319;46.046;17.802;2023-04-05T06:57:16;6.75;;;2.40;;
74791;SDS011;63319;46.046;17.802;2023-04-05T07:00:19;5.05;;;2.40;;
74791;SDS011;63319;46.046;17.802;2023-04-05T07:03:44;4.18;;;2.00;;
74791;SDS011;63319;46.046;17.802;2023-04-05T07:06:48;5.43;;;2.10;;
74791;SDS011;63319;46.046;17.802;2023-04-05T07:09:51;4.85;;;2.20;;
74791;SDS011;63319;46.046;17.802;2023-04-05T07:12:55;5.45;;;2.50;;
74791;SDS011;63319;46.046;17.802;2023-04-05T07:15:58;4.43;;;2.38;;
74791;SDS011;63319;46.046;17.802;2023-04-05T07:19:23;4.20;;;2.35;;
74791;SDS011;63319;46.046;17.802;2023-04-05T07:22:27;5.30;;;2.50;;
74791;SDS011;63319;46.046;17.802;2023-04-05T07:25:30;7.50;;;4.35;;
74791;SDS011;63319;46.046;17.802;2023-04-05T07:28:34;9.25;;;4.45;;
74791;SDS011;63319;46.046;17.802;2023-04-05T07:31:37;7.50;;;4.20;;
74791;SDS011;63319;46.046;17.802;2023-04-05T07:34:42;8.57;;;4.75;;
74791;SDS011;63319;46.046;17.802;2023-04-05T07:37:48;9.27;;;5.43;;
74791;SDS011;63319;46.046;17.802;2023-04-05T07:40:51;8.90;;;4.93;;
74791;SDS011;63319;46.046;17.802;2023-04-05T07:43:55;8.20;;;4.10;;
74791;SDS011;63319;46.046;17.802;2023-04-05T07:46:58;8.98;;;4.25;;
74791;SDS011;63319;46.046;17.802;2023-04-05T07:50:01;6.93;;;4.03;;
74791;SDS011;63319;46.046;17.802;2023-04-05T07:53:05;6.63;;;3.37;;
74791;SDS011;63319;46.046;17.802;2023-04-05T07:56:10;6.50;;;3.30;;
74791;SDS011;63319;46.046;17.802;2023-04-05T07:59:16;9.70;;;5.07;;
74791;SDS011;63319;46.046;17.802;2023-04-05T08:02:19;7.00;;;4.10;;
74791;SDS011;63319;46.046;17.802;2023-04-05T08:05:22;9.65;;;5.70;;
74791;SDS011;63319;46.046;17.802;2023-04-05T08:08:26;8.67;;;4.27;;
74791;SDS011;63319;46.046;17.802;2023-04-05T08:11:30;7.68;;;3.63;;
74791;SDS011;63319;46.046;17.802;2023-04-05T08:14:35;8.57;;;4.93;;
74791;SDS011;63319;46.046;17.802;2023-04-05T08:17:38;6.53;;;3.83;;
74791;SDS011;63319;46.046;17.802;2023-04-05T08:20:42;7.70;;;4.10;;
74791;SDS011;63319;46.046;17.802;2023-04-05T08:23:45;7.93;;;4.50;;
74791;SDS011;63319;46.046;17.802;2023-04-05T08:26:48;7.25;;;4.00;;
74791;SDS011;63319;46.046;17.802;2023-04-05T08:29:51;7.95;;;4.28;;
74791;SDS011;63319;46.046;17.802;2023-04-05T08:32:55;9.43;;;5.15;;
74791;SDS011;63319;46.046;17.802;2023-04-05T08:36:04;10.27;;;5.22;;
74791;SDS011;63319;46.046;17.802;2023-04-05T08:39:09;11.67;;;5.10;;
74791;SDS011;63319;46.046;17.802;2023-04-05T08:42:17;9.52;;;4.93;;
74791;SDS011;63319;46.046;17.802;2023-04-05T08:45:25;9.05;;;5.20;;
74791;SDS011;63319;46.046;17.802;2023-04-05T08:48:30;9.65;;;5.03;;
74791;SDS011;63319;46.046;17.802;2023-04-05T08:51:36;11.07;;;5.35;;
74791;SDS011;63319;46.046;17.802;2023-04-05T08:54:43;10.60;;;4.93;;
74791;SDS011;63319;46.046;17.802;2023-04-05T08:57:48;9.35;;;5.30;;
74791;SDS011;63319;46.046;17.802;2023-04-05T09:00:56;8.75;;;4.78;;
74791;SDS011;63319;46.046;17.802;2023-04-05T09:04:04;9.32;;;5.22;;
74791;SDS011;63319;46.046;17.802;2023-04-05T09:07:10;10.25;;;5.15;;
74791;SDS011;63319;46.046;17.802;2023-04-05T09:10:17;9.60;;;5.27;;
74791;SDS011;63319;46.046;17.802;2023-04-05T09:13:21;9.20;;;5.47;;
74791;SDS011;63319;46.046;17.802;2023-04-05T09:16:24;10.90;;;5.63;;
74791;SDS011;63319;46.046;17.802;2023-04-05T09:19:28;10.35;;;5.43;;
74791;SDS011;63319;46.046;17.802;2023-04-05T09:22:40;13.60;;;7.05;;
74791;SDS011;63319;46.046;17.802;2023-04-05T09:25:51;9.37;;;4.30;;
74791;SDS011;63319;46.046;17.802;2023-04-05T09:28:54;12.80;;;8.73;;
74791;SDS011;63319;46.046;17.802;2023-04-05T09:31:58;9.35;;;6.18;;
74791;SDS011;63319;46.046;17.802;2023-04-05T09:35:06;10.98;;;5.70;;
74791;SDS011;63319;46.046;17.802;2023-04-05T09:38:10;10.88;;;6.00;;
74791;SDS011;63319;46.046;17.802;2023-04-05T09:41:13;10.20;;;4.43;;
74791;SDS011;63319;46.046;17.802;2023-04-05T09:44:16;8.88;;;5.05;;
74791;SDS011;63319;46.046;17.802;2023-04-05T09:47:19;8.88;;;4.93;;
74791;SDS011;63319;46.046;17.802;2023-04-05T09:50:28;7.88;;;4.25;;
74791;SDS011;63319;46.046;17.802;2023-04-05T09:53:36;13.82;;;5.05;;
74791;SDS011;63319;46.046;17.802;2023-04-05T09:56:40;8.80;;;4.80;;
74791;SDS011;63319;46.046;17.802;2023-04-05T09:59:56;8.25;;;5.03;;
74791;SDS011;63319;46.046;17.802;2023-04-05T10:02:59;9.20;;;4.60;;
74791;SDS011;63319;46.046;17.802;2023-04-05T10:06:02;7.53;;;3.90;;
74791;SDS011;63319;46.046;17.802;2023-04-05T10:09:06;8.98;;;5.00;;
74791;SDS011;63319;46.046;17.802;2023-04-05T10:12:11;9.20;;;5.30;;
74791;SDS011;63319;46.046;17.802;2023-04-05T10:15:19;10.18;;;4.80;;
74791;SDS011;63319;46.046;17.802;2023-04-05T10:18:23;8.10;;;4.65;;
74791;SDS011;63319;46.046;17.802;2023-04-05T10:21:32;10.68;;;4.72;;
74791;SDS011;63319;46.046;17.802;2023-04-05T10:24:39;7.70;;;4.68;;
74791;SDS011;63319;46.046;17.802;2023-04-05T10:27:55;8.40;;;4.83;;
74791;SDS011;63319;46.046;17.802;2023-04-05T10:31:11;8.98;;;5.30;;
74791;SDS011;63319;46.046;17.802;2023-04-05T10:34:47;9.25;;;5.22;;
74791;SDS011;63319;46.046;17.802;2023-04-05T10:41:09;10.50;;;5.95;;
74791;SDS011;63319;46.046;17.802;2023-04-05T10:44:18;10.30;;;5.23;;
74791;SDS011;63319;46.046;17.802;2023-04-05T10:47:27;9.27;;;5.13;;
74791;SDS011;63319;46.046;17.802;2023-04-05T10:50:38;8.18;;;4.72;;
74791;SDS011;63319;46.046;17.802;2023-04-05T10:53:42;10.55;;;5.00;;
74791;SDS011;63319;46.046;17.802;2023-04-05T10:56:48;8.63;;;4.85;;
74791;SDS011;63319;46.046;17.802;2023-04-05T10:59:52;8.10;;;4.77;;
74791;SDS011;63319;46.046;17.802;2023-04-05T11:02:56;8.43;;;5.20;;
74791;SDS011;63319;46.046;17.802;2023-04-05T11:09:26;9.93;;;5.28;;
74791;SDS011;63319;46.046;17.802;2023-04-05T11:16:13;7.63;;;4.17;;
74791;SDS011;63319;46.046;17.802;2023-04-05T11:19:17;9.15;;;6.00;;
74791;SDS011;63319;46.046;17.802;2023-04-05T11:22:38;10.35;;;5.85;;
74791;SDS011;63319;46.046;17.802;2023-04-05T11:28:56;8.95;;;5.20;;
74791;SDS011;63319;46.046;17.802;2023-04-05T11:32:05;8.97;;;4.53;;
74791;SDS011;63319;46.046;17.802;2023-04-05T11:35:13;11.75;;;5.28;;
74791;SDS011;63319;46.046;17.802;2023-04-05T11:38:20;7.82;;;5.00;;
74791;SDS011;63319;46.046;17.802;2023-04-05T11:41:23;11.35;;;5.82;;
74791;SDS011;63319;46.046;17.802;2023-04-05T11:44:44;8.00;;;4.28;;
74791;SDS011;63319;46.046;17.802;2023-04-05T11:47:47;9.30;;;4.67;;
74791;SDS011;63319;46.046;17.802;2023-04-05T11:50:51;8.13;;;4.65;;
74791;SDS011;63319;46.046;17.802;2023-04-05T11:53:55;8.77;;;4.57;;
74791;SDS011;63319;46.046;17.802;2023-04-05T11:57:00;10.07;;;5.18;;
74791;SDS011;63319;46.046;17.802;2023-04-05T12:00:04;8.20;;;4.68;;
74791;SDS011;63319;46.046;17.802;2023-04-05T12:03:15;15.47;;;4.63;;
74791;SDS011;63319;46.046;17.802;2023-04-05T12:06:23;7.40;;;4.45;;
74791;SDS011;63319;46.046;17.802;2023-04-05T12:09:27;8.40;;;4.45;;
74791;SDS011;63319;46.046;17.802;2023-04-05T12:12:32;7.53;;;4.57;;
74791;SDS011;63319;46.046;17.802;2023-04-05T12:15:51;8.90;;;4.70;;
74791;SDS011;63319;46.046;17.802;2023-04-05T12:18:54;8.77;;;5.10;;
74791;SDS011;63319;46.046;17.802;2023-04-05T12:21:59;10.88;;;5.50;;
74791;SDS011;63319;46.046;17.802;2023-04-05T12:25:02;8.57;;;4.95;;
74791;SDS011;63319;46.046;17.802;2023-04-05T12:28:06;9.40;;;5.13;;
74791;SDS011;63319;46.046;17.802;2023-04-05T12:31:11;7.78;;;5.10;;
74791;SDS011;63319;46.046;17.802;2023-04-05T12:34:15;8.53;;;5.07;;
74791;SDS011;63319;46.046;17.802;2023-04-05T12:42:44;10.98;;;5.45;;
74791;SDS011;63319;46.046;17.802;2023-04-05T12:45:47;9.15;;;4.93;;
74791;SDS011;63319;46.046;17.802;2023-04-05T12:48:51;8.75;;;4.93;;
74791;SDS011;63319;46.046;17.802;2023-04-05T12:51:59;10.73;;;5.23;;
74791;SDS011;63319;46.046;17.802;2023-04-05T12:55:14;10.25;;;5.78;;
74791;SDS011;63319;46.046;17.802;2023-04-05T12:58:34;8.02;;;4.88;;
74791;SDS011;63319;46.046;17.802;2023-04-05T13:01:38;9.07;;;4.70;;
74791;SDS011;63319;46.046;17.802;2023-04-05T13:04:44;8.98;;;5.15;;
74791;SDS011;63319;46.046;17.802;2023-04-05T13:07:46;9.77;;;4.93;;
74791;SDS011;63319;46.046;17.802;2023-04-05T13:10:49;8.65;;;4.28;;
74791;SDS011;63319;46.046;17.802;2023-04-05T13:13:52;9.88;;;4.80;;
74791;SDS011;63319;46.046;17.802;2023-04-05T13:16:55;18.17;;;4.20;;
74791;SDS011;63319;46.046;17.802;2023-04-05T13:19:58;8.05;;;4.97;;
74791;SDS011;63319;46.046;17.802;2023-04-05T13:23:01;8.70;;;4.73;;
74791;SDS011;63319;46.046;17.802;2023-04-05T13:26:04;9.50;;;4.88;;
74791;SDS011;63319;46.046;17.802;2023-04-05T13:29:08;8.40;;;4.85;;
74791;SDS011;63319;46.046;17.802;2023-04-05T13:32:11;8.65;;;5.05;;
74791;SDS011;63319;46.046;17.802;2023-04-05T13:35:35;7.40;;;3.88;;
74791;SDS011;63319;46.046;17.802;2023-04-05T13:38:39;8.47;;;4.10;;
74791;SDS011;63319;46.046;17.802;2023-04-05T13:41:43;7.15;;;3.50;;
74791;SDS011;63319;46.046;17.802;2023-04-05T13:44:46;8.25;;;3.90;;
74791;SDS011;63319;46.046;17.802;2023-04-05T13:47:49;8.40;;;3.92;;
74791;SDS011;63319;46.046;17.802;2023-04-05T13:50:52;9.40;;;4.38;;
74791;SDS011;63319;46.046;17.802;2023-04-05T13:53:54;7.20;;;3.83;;
74791;SDS011;63319;46.046;17.802;2023-04-05T13:56:57;8.20;;;4.22;;
74791;SDS011;63319;46.046;17.802;2023-04-05T14:00:00;8.45;;;4.40;;
74791;SDS011;63319;46.046;17.802;2023-04-05T14:03:12;7.18;;;3.50;;
74791;SDS011;63319;46.046;17.802;2023-04-05T14:06:15;7.15;;;3.72;;
74791;SDS011;63319;46.046;17.802;2023-04-05T14:09:18;7.27;;;3.53;;
74791;SDS011;63319;46.046;17.802;2023-04-05T14:12:21;6.88;;;3.60;;
74791;SDS011;63319;46.046;17.802;2023-04-05T14:15:24;7.38;;;3.53;;
74791;SDS011;63319;46.046;17.802;2023-04-05T14:18:28;8.25;;;3.70;;
74791;SDS011;63319;46.046;17.802;2023-04-05T14:21:32;7.82;;;4.20;;
74791;SDS011;63319;46.046;17.802;2023-04-05T14:24:35;6.80;;;3.30;;
74791;SDS011;63319;46.046;17.802;2023-04-05T14:27:38;7.78;;;3.63;;
74791;SDS011;63319;46.046;17.802;2023-04-05T14:30:43;8.68;;;4.07;;
74791;SDS011;63319;46.046;17.802;2023-04-05T14:33:46;6.38;;;3.03;;
74791;SDS011;63319;46.046;17.802;2023-04-05T14:36:49;10.30;;;4.78;;
74791;SDS011;63319;46.046;17.802;2023-04-05T14:39:52;6.77;;;3.87;;
74791;SDS011;63319;46.046;17.802;2023-04-05T14:42:55;7.80;;;3.65;;
74791;SDS011;63319;46.046;17.802;2023-04-05T14:45:57;7.53;;;3.67;;
74791;SDS011;63319;46.046;17.802;2023-04-05T14:49:00;7.20;;;3.75;;
74791;SDS011;63319;46.046;17.802;2023-04-05T14:52:06;8.38;;;2.88;;
74791;SDS011;63319;46.046;17.802;2023-04-05T14:55:09;7.00;;;3.30;;
74791;SDS011;63319;46.046;17.802;2023-04-05T14:58:14;8.70;;;3.72;;
74791;SDS011;63319;46.046;17.802;2023-04-05T15:01:18;7.65;;;3.58;;
74791;SDS011;63319;46.046;17.802;2023-04-05T15:04:21;7.25;;;3.40;;
74791;SDS011;63319;46.046;17.802;2023-04-05T15:07:24;7.55;;;3.97;;
74791;SDS011;63319;46.046;17.802;2023-04-05T15:10:27;6.67;;;3.60;;
74791;SDS011;63319;46.046;17.802;2023-04-05T15:13:35;6.57;;;3.60;;
74791;SDS011;63319;46.046;17.802;2023-04-05T15:16:38;8.00;;;3.63;;
74791;SDS011;63319;46.046;17.802;2023-04-05T15:19:41;6.47;;;3.67;;
74791;SDS011;63319;46.046;17.802;2023-04-05T15:22:44;7.95;;;3.65;;
74791;SDS011;63319;46.046;17.802;2023-04-05T15:25:47;6.80;;;3.47;;
74791;SDS011;63319;46.046;17.802;2023-04-05T15:28:49;7.38;;;3.25;;
74791;SDS011;63319;46.046;17.802;2023-04-05T15:31:52;6.50;;;3.30;;
74791;SDS011;63319;46.046;17.802;2023-04-05T15:34:55;7.82;;;3.70;;
74791;SDS011;63319;46.046;17.802;2023-04-05T15:37:59;7.05;;;3.60;;
74791;SDS011;63319;46.046;17.802;2023-04-05T15:41:03;6.30;;;3.07;;
74791;SDS011;63319;46.046;17.802;2023-04-05T15:44:05;5.80;;;3.22;;
74791;SDS011;63319;46.046;17.802;2023-04-05T15:47:08;7.82;;;3.53;;
74791;SDS011;63319;46.046;17.802;2023-04-05T15:50:12;7.45;;;3.80;;
74791;SDS011;63319;46.046;17.802;2023-04-05T15:53:16;7.38;;;3.50;;
74791;SDS011;63319;46.046;17.802;2023-04-05T15:56:18;5.70;;;3.17;;
74791;SDS011;63319;46.046;17.802;2023-04-05T15:59:21;7.95;;;3.70;;
74791;SDS011;63319;46.046;17.802;2023-04-05T16:02:24;5.95;;;3.38;;
74791;SDS011;63319;46.046;17.802;2023-04-05T16:05:27;6.75;;;3.67;;
74791;SDS011;63319;46.046;17.802;2023-04-05T16:08:30;6.70;;;3.45;;
74791;SDS011;63319;46.046;17.802;2023-04-05T16:11:33;6.77;;;3.33;;
74791;SDS011;63319;46.046;17.802;2023-04-05T16:14:36;6.28;;;3.47;;
74791;SDS011;63319;46.046;17.802;2023-04-05T16:17:39;6.00;;;3.13;;
74791;SDS011;63319;46.046;17.802;2023-04-05T16:20:42;6.95;;;3.80;;
74791;SDS011;63319;46.046;17.802;2023-04-05T16:23:45;7.32;;;3.95;;
74791;SDS011;63319;46.046;17.802;2023-04-05T16:26:48;5.67;;;3.20;;
74791;SDS011;63319;46.046;17.802;2023-04-05T16:29:51;6.25;;;3.17;;
74791;SDS011;63319;46.046;17.802;2023-04-05T16:32:54;6.38;;;3.40;;
74791;SDS011;63319;46.046;17.802;2023-04-05T16:35:58;6.82;;;3.53;;
74791;SDS011;63319;46.046;17.802;2023-04-05T16:39:01;6.45;;;3.60;;
74791;SDS011;63319;46.046;17.802;2023-04-05T16:42:05;6.67;;;3.43;;
74791;SDS011;63319;46.046;17.802;2023-04-05T16:45:09;6.65;;;3.65;;
74791;SDS011;63319;46.046;17.802;2023-04-05T16:48:12;7.03;;;3.88;;
74791;SDS011;63319;46.046;17.802;2023-04-05T16:51:16;7.07;;;3.67;;
74791;SDS011;63319;46.046;17.802;2023-04-05T16:54:18;6.63;;;3.50;;
74791;SDS011;63319;46.046;17.802;2023-04-05T16:57:22;6.43;;;3.23;;
74791;SDS011;63319;46.046;17.802;2023-04-05T17:00:25;8.77;;;3.63;;
74791;SDS011;63319;46.046;17.802;2023-04-05T17:03:28;5.75;;;3.35;;
74791;SDS011;63319;46.046;17.802;2023-04-05T17:06:31;6.47;;;3.00;;
74791;SDS011;63319;46.046;17.802;2023-04-05T17:09:34;6.80;;;3.42;;
74791;SDS011;63319;46.046;17.802;2023-04-05T17:12:37;6.70;;;3.30;;
74791;SDS011;63319;46.046;17.802;2023-04-05T17:15:43;6.50;;;3.28;;
74791;SDS011;63319;46.046;17.802;2023-04-05T17:18:46;8.18;;;4.10;;
74791;SDS011;63319;46.046;17.802;2023-04-05T17:21:49;6.25;;;3.28;;
74791;SDS011;63319;46.046;17.802;2023-04-05T17:24:52;7.10;;;3.85;;
74791;SDS011;63319;46.046;17.802;2023-04-05T17:27:55;6.87;;;3.23;;
74791;SDS011;63319;46.046;17.802;2023-04-05T17:30:58;7.75;;;4.25;;
74791;SDS011;63319;46.046;17.802;2023-04-05T17:34:01;6.30;;;3.55;;
74791;SDS011;63319;46.046;17.802;2023-04-05T17:37:05;8.75;;;4.15;;
74791;SDS011;63319;46.046;17.802;2023-04-05T17:40:12;7.80;;;3.90;;
74791;SDS011;63319;46.046;17.802;2023-04-05T17:43:15;8.37;;;3.80;;
74791;SDS011;63319;46.046;17.802;2023-04-05T17:46:18;6.72;;;3.53;;
74791;SDS011;63319;46.046;17.802;2023-04-05T17:49:35;7.80;;;4.07;;
74791;SDS011;63319;46.046;17.802;2023-04-05T17:52:39;8.02;;;4.68;;
74791;SDS011;63319;46.046;17.802;2023-04-05T17:55:42;8.20;;;4.45;;
74791;SDS011;63319;46.046;17.802;2023-04-05T17:58:45;7.70;;;3.93;;
74791;SDS011;63319;46.046;17.802;2023-04-05T18:01:48;8.95;;;3.90;;
74791;SDS011;63319;46.046;17.802;2023-04-05T18:04:55;8.10;;;4.35;;
74791;SDS011;63319;46.046;17.802;2023-04-05T18:07:58;8.43;;;4.30;;
74791;SDS011;63319;46.046;17.802;2023-04-05T18:11:01;7.85;;;4.53;;
74791;SDS011;63319;46.046;17.802;2023-04-05T18:14:04;9.40;;;5.17;;
74791;SDS011;63319;46.046;17.802;2023-04-05T18:17:06;9.07;;;5.32;;
74791;SDS011;63319;46.046;17.802;2023-04-05T18:20:10;7.90;;;4.75;;
74791;SDS011;63319;46.046;17.802;2023-04-05T18:23:16;9.07;;;4.50;;
74791;SDS011;63319;46.046;17.802;2023-04-05T18:26:19;8.77;;;5.70;;
74791;SDS011;63319;46.046;17.802;2023-04-05T18:29:22;8.93;;;4.60;;
74791;SDS011;63319;46.046;17.802;2023-04-05T18:32:29;7.68;;;4.00;;
74791;SDS011;63319;46.046;17.802;2023-04-05T18:35:32;9.38;;;4.90;;
74791;SDS011;63319;46.046;17.802;2023-04-05T18:38:35;8.68;;;5.18;;
74791;SDS011;63319;46.046;17.802;2023-04-05T18:41:38;10.35;;;5.22;;
74791;SDS011;63319;46.046;17.802;2023-04-05T18:44:41;8.07;;;4.33;;
74791;SDS011;63319;46.046;17.802;2023-04-05T18:47:43;9.18;;;4.65;;